sensor_id;sensor_type;location;lat;lon;timestamp;pressure;altitude;pressure_sealevel;temperature;humidity
26112;BME280;13829;48.990;8.346;2023-04-25T00:00:06;99901.13;;;9.15;100.00
26112;BME280;13829;48.990;8.346;2023-04-25T00:02:34;99908.13;;;9.16;100.00
26112;BME280;13829;48.990;8.346;2023-04-25T00:05:03;99907.25;;;9.11;100.00
26112;BME280;13829;48.990;8.346;2023-04-25T00:07:30;99903.72;;;9.06;100.00
26112;BME280;13829;48.990;8.346;2023-04-25T00:09:58;99909.84;;;9.09;100.00
26112;BME280;13829;48.990;8.346;2023-04-25T00:12:25;99906.34;;;9.09;100.00
26112;BME280;13829;48.990;8.346;2023-04-25T00:14:55;99909.84;;;9.09;100.00
26112;BME280;13829;48.990;8.346;2023-04-25T00:17:24;99906.34;;;9.09;100.00
26112;BME280;13829;48.990;8.346;2023-04-25T00:19:52;99907.25;;;9.14;100.00
26112;BME280;13829;48.990;8.346;2023-04-25T00:22:20;99899.38;;;9.16;100.00
26112;BME280;13829;48.990;8.346;2023-04-25T00:24:49;99902.03;;;9.25;100.00
26112;BME280;13829;48.990;8.346;2023-04-25T00:27:16;99902.91;;;9.22;100.00
26112;BME280;13829;48.990;8.346;2023-04-25T00:29:43;99902.03;;;9.25;100.00
26112;BME280;13829;48.990;8.346;2023-04-25T00:32:12;99899.41;;;9.28;100.00
26112;BME280;13829;48.990;8.346;2023-04-25T00:34:45;99902.94;;;9.38;100.00
26112;BME280;13829;48.990;8.346;2023-04-25T00:37:12;99895.91;;;9.40;100.00
26112;BME280;13829;48.990;8.346;2023-04-25T00:39:39;99898.56;;;9.57;100.00
26112;BME280;13829;48.990;8.346;2023-04-25T00:42:08;99904.69;;;9.50;100.00
26112;BME280;13829;48.990;8.346;2023-04-25T00:44:37;99903.81;;;9.52;100.00
26112;BME280;13829;48.990;8.346;2023-04-25T00:47:05;99886.31;;;9.54;100.00
26112;BME280;13829;48.990;8.346;2023-04-25T00:49:37;99889.81;;;9.56;100.00
26112;BME280;13829;48.990;8.346;2023-04-25T00:52:04;99883.69;;;9.50;100.00
26112;BME280;13829;48.990;8.346;2023-04-25T00:54:32;99894.19;;;9.48;100.00
26112;BME280;13829;48.990;8.346;2023-04-25T00:57:02;99883.72;;;9.53;100.00
26112;BME280;13829;48.990;8.346;2023-04-25T00:59:33;99888.94;;;9.57;100.00
26112;BME280;13829;48.990;8.346;2023-04-25T01:02:04;99877.56;;;9.65;100.00
26112;BME280;13829;48.990;8.346;2023-04-25T01:04:41;99878.47;;;9.68;100.00
26112;BME280;13829;48.990;8.346;2023-04-25T01:07:13;99872.31;;;9.74;100.00
26112;BME280;13829;48.990;8.346;2023-04-25T01:09:45;99875.81;;;9.70;100.00
26112;BME280;13829;48.990;8.346;2023-04-25T01:12:12;99874.06;;;9.69;100.00
26112;BME280;13829;48.990;8.346;2023-04-25T01:14:40;99879.31;;;9.69;100.00
26112;BME280;13829;48.990;8.346;2023-04-25T01:17:09;99876.69;;;9.67;100.00
26112;BME280;13829;48.990;8.346;2023-04-25T01:19:38;99871.44;;;9.62;100.00
26112;BME280;13829;48.990;8.346;2023-04-25T01:22:09;99874.09;;;9.66;100.00
26112;BME280;13829;48.990;8.346;2023-04-25T01:24:39;99867.97;;;9.67;100.00
26112;BME280;13829;48.990;8.346;2023-04-25T01:27:09;99873.19;;;9.70;100.00
26112;BME280;13829;48.990;8.346;2023-04-25T01:29:37;99872.31;;;9.71;100.00
26112;BME280;13829;48.990;8.346;2023-04-25T01:32:08;99863.56;;;9.69;100.00
26112;BME280;13829;48.990;8.346;2023-04-25T01:34:35;99863.56;;;9.69;100.00
26112;BME280;13829;48.990;8.346;2023-04-25T01:37:02;99874.09;;;9.78;100.00
26112;BME280;13829;48.990;8.346;2023-04-25T01:39:37;99875.81;;;9.76;100.00
26112;BME280;13829;48.990;8.346;2023-04-25T01:42:05;99866.19;;;10.01;100.00
26112;BME280;13829;48.990;8.346;2023-04-25T01:44:32;99874.06;;;9.96;100.00
26112;BME280;13829;48.990;8.346;2023-04-25T01:46:59;99865.28;;;10.16;100.00
26112;BME280;13829;48.990;8.346;2023-04-25T01:49:26;99869.66;;;10.16;99.35
26112;BME280;13829;48.990;8.346;2023-04-25T01:51:53;99874.03;;;10.12;100.00
26112;BME280;13829;48.990;8.346;2023-04-25T01:54:22;99870.53;;;10.24;99.79
26112;BME280;13829;48.990;8.346;2023-04-25T01:56:58;99865.25;;;10.19;99.36
26112;BME280;13829;48.990;8.346;2023-04-25T01:59:28;99868.78;;;10.21;100.00
26112;BME280;13829;48.990;8.346;2023-04-25T02:02:01;99870.53;;;10.16;99.43
26112;BME280;13829;48.990;8.346;2023-04-25T02:04:32;99872.28;;;10.17;99.69
26112;BME280;13829;48.990;8.346;2023-04-25T02:06:59;99872.28;;;10.16;98.16
26112;BME280;13829;48.990;8.346;2023-04-25T02:09:26;99875.78;;;10.18;99.26
26112;BME280;13829;48.990;8.346;2023-04-25T02:11:56;99871.38;;;10.23;99.35
26112;BME280;13829;48.990;8.346;2023-04-25T02:14:29;99870.53;;;10.05;98.05
26112;BME280;13829;48.990;8.346;2023-04-25T02:16:56;99876.66;;;10.20;98.62
26112;BME280;13829;48.990;8.346;2023-04-25T02:19:29;99878.44;;;10.04;99.74
26112;BME280;13829;48.990;8.346;2023-04-25T02:21:56;99879.28;;;9.98;100.00
26112;BME280;13829;48.990;8.346;2023-04-25T02:24:23;99878.41;;;10.19;100.00
26112;BME280;13829;48.990;8.346;2023-04-25T02:26:50;99874.00;;;10.29;98.55
26112;BME280;13829;48.990;8.346;2023-04-25T02:29:25;99870.53;;;10.13;99.63
26112;BME280;13829;48.990;8.346;2023-04-25T02:31:54;99868.78;;;10.15;100.00
26112;BME280;13829;48.990;8.346;2023-04-25T02:34:21;99862.69;;;10.08;100.00
26112;BME280;13829;48.990;8.346;2023-04-25T02:36:49;99855.63;;;10.23;100.00
26112;BME280;13829;48.990;8.346;2023-04-25T02:39:18;99846.00;;;10.14;100.00
26112;BME280;13829;48.990;8.346;2023-04-25T02:41:47;99847.78;;;10.06;100.00
26112;BME280;13829;48.990;8.346;2023-04-25T02:44:14;99851.28;;;10.11;100.00
26112;BME280;13829;48.990;8.346;2023-04-25T02:46:51;99846.91;;;10.15;100.00
26112;BME280;13829;48.990;8.346;2023-04-25T02:49:17;99846.91;;;9.99;100.00
26112;BME280;13829;48.990;8.346;2023-04-25T02:51:44;99847.78;;;9.96;100.00
26112;BME280;13829;48.990;8.346;2023-04-25T02:54:14;99853.00;;;10.10;100.00
26112;BME280;13829;48.990;8.346;2023-04-25T02:56:43;99848.66;;;9.94;100.00
26112;BME280;13829;48.990;8.346;2023-04-25T02:59:10;99853.03;;;10.06;100.00
26112;BME280;13829;48.990;8.346;2023-04-25T03:01:37;99848.66;;;10.02;100.00
26112;BME280;13829;48.990;8.346;2023-04-25T03:04:05;99844.28;;;10.04;100.00
26112;BME280;13829;48.990;8.346;2023-04-25T03:06:32;99844.31;;;10.01;100.00
26112;BME280;13829;48.990;8.346;2023-04-25T03:08:59;99844.28;;;9.99;100.00
26112;BME280;13829;48.990;8.346;2023-04-25T03:11:26;99846.03;;;10.11;100.00
26112;BME280;13829;48.990;8.346;2023-04-25T03:13:53;99844.31;;;10.01;100.00
26112;BME280;13829;48.990;8.346;2023-04-25T03:16:23;99842.53;;;9.89;100.00
26112;BME280;13829;48.990;8.346;2023-04-25T03:18:50;99844.28;;;9.98;100.00
26112;BME280;13829;48.990;8.346;2023-04-25T03:21:19;99846.03;;;9.94;100.00
26112;BME280;13829;48.990;8.346;2023-04-25T03:23:46;99840.75;;;10.17;100.00
26112;BME280;13829;48.990;8.346;2023-04-25T03:26:12;99843.44;;;9.97;100.00
26112;BME280;13829;48.990;8.346;2023-04-25T03:28:40;99837.28;;;10.03;100.00
26112;BME280;13829;48.990;8.346;2023-04-25T03:31:07;99835.53;;;9.94;100.00
26112;BME280;13829;48.990;8.346;2023-04-25T03:33:34;99834.66;;;10.00;100.00
26112;BME280;13829;48.990;8.346;2023-04-25T03:36:00;99832.03;;;9.93;100.00
26112;BME280;13829;48.990;8.346;2023-04-25T03:38:29;99830.31;;;9.89;100.00
26112;BME280;13829;48.990;8.346;2023-04-25T03:40:56;99831.19;;;9.87;100.00
26112;BME280;13829;48.990;8.346;2023-04-25T03:43:23;99826.81;;;9.81;100.00
26112;BME280;13829;48.990;8.346;2023-04-25T03:45:50;99830.28;;;9.86;100.00
26112;BME280;13829;48.990;8.346;2023-04-25T03:48:17;99827.69;;;9.83;100.00
26112;BME280;13829;48.990;8.346;2023-04-25T03:50:47;99835.56;;;9.83;100.00
26112;BME280;13829;48.990;8.346;2023-04-25T03:53:13;99836.41;;;9.90;100.00
26112;BME280;13829;48.990;8.346;2023-04-25T03:55:42;99833.78;;;9.98;100.00
26112;BME280;13829;48.990;8.346;2023-04-25T03:58:09;99837.31;;;9.81;100.00
26112;BME280;13829;48.990;8.346;2023-04-25T04:00:36;99829.41;;;9.76;100.00
26112;BME280;13829;48.990;8.346;2023-04-25T04:03:03;99839.00;;;10.07;100.00
26112;BME280;13829;48.990;8.346;2023-04-25T04:05:30;99835.53;;;9.95;100.00
26112;BME280;13829;48.990;8.346;2023-04-25T04:07:58;99844.28;;;9.85;100.00
26112;BME280;13829;48.990;8.346;2023-04-25T04:10:25;99844.28;;;9.93;100.00
26112;BME280;13829;48.990;8.346;2023-04-25T04:12:54;99835.56;;;9.89;100.00
26112;BME280;13829;48.990;8.346;2023-04-25T04:15:21;99835.56;;;9.89;100.00
26112;BME280;13829;48.990;8.346;2023-04-25T04:17:48;99839.94;;;9.93;100.00
26112;BME280;13829;48.990;8.346;2023-04-25T04:20:15;99833.78;;;9.91;100.00
26112;BME280;13829;48.990;8.346;2023-04-25T04:22:42;99828.53;;;9.94;100.00
26112;BME280;13829;48.990;8.346;2023-04-25T04:25:09;99830.28;;;9.99;100.00
26112;BME280;13829;48.990;8.346;2023-04-25T04:27:37;99830.28;;;10.00;100.00
26112;BME280;13829;48.990;8.346;2023-04-25T04:30:07;99839.00;;;10.07;100.00
26112;BME280;13829;48.990;8.346;2023-04-25T04:32:35;99832.03;;;10.00;100.00
26112;BME280;13829;48.990;8.346;2023-04-25T04:35:03;99836.41;;;10.01;100.00
26112;BME280;13829;48.990;8.346;2023-04-25T04:37:32;99835.53;;;9.99;100.00
26112;BME280;13829;48.990;8.346;2023-04-25T04:39:59;99827.66;;;9.99;100.00
26112;BME280;13829;48.990;8.346;2023-04-25T04:42:30;99834.66;;;10.01;100.00
26112;BME280;13829;48.990;8.346;2023-04-25T04:45:01;99840.75;;;10.02;100.00
26112;BME280;13829;48.990;8.346;2023-04-25T04:47:31;99837.28;;;10.03;100.00
26112;BME280;13829;48.990;8.346;2023-04-25T04:49:59;99837.22;;;10.27;100.00
26112;BME280;13829;48.990;8.346;2023-04-25T04:52:27;99842.50;;;10.21;100.00
26112;BME280;13829;48.990;8.346;2023-04-25T04:54:54;99841.59;;;10.27;100.00
26112;BME280;13829;48.990;8.346;2023-04-25T04:57:22;99850.38;;;10.27;100.00
26112;BME280;13829;48.990;8.346;2023-04-25T04:59:49;99843.34;;;10.39;100.00
26112;BME280;13829;48.990;8.346;2023-04-25T05:02:19;99844.25;;;10.19;100.00
26112;BME280;13829;48.990;8.346;2023-04-25T05:04:48;99853.88;;;10.19;100.00
26112;BME280;13829;48.990;8.346;2023-04-25T05:07:16;99849.50;;;10.22;100.00
26112;BME280;13829;48.990;8.346;2023-04-25T05:09:43;99847.72;;;10.24;100.00
26112;BME280;13829;48.990;8.346;2023-04-25T05:12:11;99846.88;;;10.22;100.00
26112;BME280;13829;48.990;8.346;2023-04-25T05:14:38;99848.59;;;10.29;100.00
26112;BME280;13829;48.990;8.346;2023-04-25T05:17:05;99845.09;;;10.29;100.00
26112;BME280;13829;48.990;8.346;2023-04-25T05:19:34;99846.84;;;10.27;100.00
26112;BME280;13829;48.990;8.346;2023-04-25T05:22:03;99854.75;;;10.22;100.00
26112;BME280;13829;48.990;8.346;2023-04-25T05:24:30;99848.59;;;10.26;100.00
26112;BME280;13829;48.990;8.346;2023-04-25T05:26:57;99855.59;;;10.32;100.00
26112;BME280;13829;48.990;8.346;2023-04-25T05:29:25;99847.75;;;10.27;100.00
26112;BME280;13829;48.990;8.346;2023-04-25T05:31:52;99849.47;;;10.25;100.00
26112;BME280;13829;48.990;8.346;2023-04-25T05:34:19;99851.22;;;10.37;100.00
26112;BME280;13829;48.990;8.346;2023-04-25T05:36:46;99850.31;;;10.49;100.00
26112;BME280;13829;48.990;8.346;2023-04-25T05:39:16;99854.69;;;10.56;100.00
26112;BME280;13829;48.990;8.346;2023-04-25T05:41:43;99855.50;;;10.66;100.00
26112;BME280;13829;48.990;8.346;2023-04-25T05:44:10;99865.13;;;10.69;100.00
26112;BME280;13829;48.990;8.346;2023-04-25T05:46:38;99866.84;;;10.82;100.00
26112;BME280;13829;48.990;8.346;2023-04-25T05:49:05;99865.94;;;10.85;100.00
26112;BME280;13829;48.990;8.346;2023-04-25T05:51:32;99866.72;;;11.04;97.96
26112;BME280;13829;48.990;8.346;2023-04-25T05:53:59;99876.41;;;10.96;97.84
26112;BME280;13829;48.990;8.346;2023-04-25T05:56:27;99874.72;;;10.88;98.37
26112;BME280;13829;48.990;8.346;2023-04-25T05:58:54;99878.16;;;10.98;98.88
26112;BME280;13829;48.990;8.346;2023-04-25T06:01:22;99875.53;;;10.97;98.14
26112;BME280;13829;48.990;8.346;2023-04-25T06:03:49;99878.25;;;10.76;98.76
26112;BME280;13829;48.990;8.346;2023-04-25T06:06:17;99880.84;;;10.83;99.56
26112;BME280;13829;48.990;8.346;2023-04-25T06:08:43;99879.06;;;10.94;100.00
26112;BME280;13829;48.990;8.346;2023-04-25T06:11:11;99880.88;;;10.81;100.00
26112;BME280;13829;48.990;8.346;2023-04-25T06:13:39;99885.25;;;10.84;100.00
26112;BME280;13829;48.990;8.346;2023-04-25T06:16:06;99888.75;;;10.87;99.76
26112;BME280;13829;48.990;8.346;2023-04-25T06:18:33;99885.25;;;10.84;100.00
26112;BME280;13829;48.990;8.346;2023-04-25T06:21:00;99891.38;;;10.81;100.00
26112;BME280;13829;48.990;8.346;2023-04-25T06:23:28;99892.28;;;10.80;100.00
26112;BME280;13829;48.990;8.346;2023-04-25T06:25:55;99896.69;;;10.78;100.00
26112;BME280;13829;48.990;8.346;2023-04-25T06:28:22;99901.97;;;10.67;100.00
26112;BME280;13829;48.990;8.346;2023-04-25T06:30:51;99898.47;;;10.62;100.00
26112;BME280;13829;48.990;8.346;2023-04-25T06:33:18;99897.66;;;10.48;100.00
26112;BME280;13829;48.990;8.346;2023-04-25T06:35:45;99896.78;;;10.39;100.00
26112;BME280;13829;48.990;8.346;2023-04-25T06:38:12;99902.03;;;10.52;100.00
26112;BME280;13829;48.990;8.346;2023-04-25T06:40:39;99903.75;;;10.54;100.00
26112;BME280;13829;48.990;8.346;2023-04-25T06:43:06;99903.72;;;10.73;100.00
26112;BME280;13829;48.990;8.346;2023-04-25T06:45:34;99907.16;;;10.81;100.00
26112;BME280;13829;48.990;8.346;2023-04-25T06:48:02;99899.28;;;10.83;100.00
26112;BME280;13829;48.990;8.346;2023-04-25T06:50:29;99901.94;;;10.78;100.00
26112;BME280;13829;48.990;8.346;2023-04-25T06:52:56;99902.78;;;10.80;100.00
26112;BME280;13829;48.990;8.346;2023-04-25T06:55:23;99904.63;;;10.64;100.00
26112;BME280;13829;48.990;8.346;2023-04-25T06:57:50;99909.84;;;10.69;100.00
26112;BME280;13829;48.990;8.346;2023-04-25T07:00:19;99908.13;;;10.62;100.00
26112;BME280;13829;48.990;8.346;2023-04-25T07:02:46;99908.16;;;10.55;100.00
26112;BME280;13829;48.990;8.346;2023-04-25T07:05:14;99911.69;;;10.47;100.00
26112;BME280;13829;48.990;8.346;2023-04-25T07:07:41;99916.03;;;10.62;100.00
26112;BME280;13829;48.990;8.346;2023-04-25T07:10:09;99912.56;;;10.39;100.00
26112;BME280;13829;48.990;8.346;2023-04-25T07:12:36;99914.25;;;10.57;100.00
26112;BME280;13829;48.990;8.346;2023-04-25T07:15:04;99918.63;;;10.66;100.00
26112;BME280;13829;48.990;8.346;2023-04-25T07:17:33;99918.69;;;10.49;100.00
26112;BME280;13829;48.990;8.346;2023-04-25T07:20:00;99916.88;;;10.65;100.00
26112;BME280;13829;48.990;8.346;2023-04-25T07:22:30;99922.13;;;10.65;100.00
26112;BME280;13829;48.990;8.346;2023-04-25T07:24:57;99923.00;;;10.72;100.00
26112;BME280;13829;48.990;8.346;2023-04-25T07:27:24;99921.25;;;10.60;100.00
26112;BME280;13829;48.990;8.346;2023-04-25T07:29:51;99922.97;;;10.78;100.00
26112;BME280;13829;48.990;8.346;2023-04-25T07:32:19;99926.50;;;10.77;100.00
26112;BME280;13829;48.990;8.346;2023-04-25T07:34:46;99928.25;;;10.72;100.00
26112;BME280;13829;48.990;8.346;2023-04-25T07:37:13;99935.31;;;10.54;100.00
26112;BME280;13829;48.990;8.346;2023-04-25T07:39:42;99928.28;;;10.66;100.00
26112;BME280;13829;48.990;8.346;2023-04-25T07:42:09;99936.16;;;10.67;100.00
26112;BME280;13829;48.990;8.346;2023-04-25T07:44:36;99941.38;;;10.75;100.00
26112;BME280;13829;48.990;8.346;2023-04-25T07:47:05;99937.91;;;10.65;100.00
26112;BME280;13829;48.990;8.346;2023-04-25T07:49:33;99945.81;;;10.60;100.00
26112;BME280;13829;48.990;8.346;2023-04-25T07:52:00;99951.06;;;10.73;100.00
26112;BME280;13829;48.990;8.346;2023-04-25T07:54:27;99951.06;;;10.64;100.00
26112;BME280;13829;48.990;8.346;2023-04-25T07:56:56;99954.53;;;10.75;100.00
26112;BME280;13829;48.990;8.346;2023-04-25T07:59:24;99948.41;;;10.81;100.00
26112;BME280;13829;48.990;8.346;2023-04-25T08:01:51;99956.31;;;10.70;100.00
26112;BME280;13829;48.990;8.346;2023-04-25T08:04:18;99969.47;;;10.65;100.00
26112;BME280;13829;48.990;8.346;2023-04-25T08:06:45;99972.97;;;10.67;100.00
26112;BME280;13829;48.990;8.346;2023-04-25T08:09:13;99978.19;;;10.81;100.00
26112;BME280;13829;48.990;8.346;2023-04-25T08:11:41;99972.03;;;10.88;100.00
26112;BME280;13829;48.990;8.346;2023-04-25T08:14:11;99986.03;;;10.97;100.00
26112;BME280;13829;48.990;8.346;2023-04-25T08:16:39;99994.78;;;11.05;100.00
26112;BME280;13829;48.990;8.346;2023-04-25T08:19:06;99990.44;;;10.93;100.00
26112;BME280;13829;48.990;8.346;2023-04-25T08:21:33;99995.75;;;10.76;100.00
26112;BME280;13829;48.990;8.346;2023-04-25T08:24:00;99996.56;;;10.90;100.00
26112;BME280;13829;48.990;8.346;2023-04-25T08:26:29;100008.88;;;10.77;100.00
26112;BME280;13829;48.990;8.346;2023-04-25T08:28:56;100008.00;;;10.79;100.00
26112;BME280;13829;48.990;8.346;2023-04-25T08:31:24;100020.31;;;10.69;100.00
26112;BME280;13829;48.990;8.346;2023-04-25T08:33:54;100015.91;;;10.80;100.00
26112;BME280;13829;48.990;8.346;2023-04-25T08:36:22;100017.69;;;10.72;100.00
26112;BME280;13829;48.990;8.346;2023-04-25T08:38:52;100019.44;;;10.73;100.00
26112;BME280;13829;48.990;8.346;2023-04-25T08:41:20;100022.94;;;10.72;100.00
26112;BME280;13829;48.990;8.346;2023-04-25T08:43:49;100028.19;;;10.81;100.00
26112;BME280;13829;48.990;8.346;2023-04-25T08:46:19;100029.91;;;10.79;100.00
26112;BME280;13829;48.990;8.346;2023-04-25T08:48:48;100030.78;;;10.89;100.00
26112;BME280;13829;48.990;8.346;2023-04-25T08:51:23;100040.47;;;10.82;100.00
26112;BME280;13829;48.990;8.346;2023-04-25T08:53:51;100036.09;;;10.78;100.00
26112;BME280;13829;48.990;8.346;2023-04-25T08:56:19;100036.94;;;10.79;100.00
26112;BME280;13829;48.990;8.346;2023-04-25T08:58:49;100044.84;;;10.83;100.00
26112;BME280;13829;48.990;8.346;2023-04-25T09:01:17;100046.63;;;10.64;100.00
26112;BME280;13829;48.990;8.346;2023-04-25T09:03:45;100051.88;;;10.66;100.00
26112;BME280;13829;48.990;8.346;2023-04-25T09:06:14;100048.38;;;10.73;100.00
26112;BME280;13829;48.990;8.346;2023-04-25T09:08:43;100051.88;;;10.67;100.00
26112;BME280;13829;48.990;8.346;2023-04-25T09:11:10;100062.38;;;10.61;100.00
26112;BME280;13829;48.990;8.346;2023-04-25T09:13:37;100064.16;;;10.59;100.00
26112;BME280;13829;48.990;8.346;2023-04-25T09:16:04;100070.28;;;10.44;100.00
26112;BME280;13829;48.990;8.346;2023-04-25T09:18:34;100072.06;;;10.39;100.00
26112;BME280;13829;48.990;8.346;2023-04-25T09:21:07;100070.28;;;10.44;100.00
26112;BME280;13829;48.990;8.346;2023-04-25T09:23:45;100079.91;;;10.57;100.00
26112;BME280;13829;48.990;8.346;2023-04-25T09:26:15;100072.03;;;10.67;100.00
26112;BME280;13829;48.990;8.346;2023-04-25T09:28:43;100081.69;;;10.69;100.00
26112;BME280;13829;48.990;8.346;2023-04-25T09:31:11;100084.31;;;10.83;100.00
26112;BME280;13829;48.990;8.346;2023-04-25T09:33:40;100091.31;;;10.87;100.00
26112;BME280;13829;48.990;8.346;2023-04-25T09:36:09;100091.28;;;10.98;100.00
26112;BME280;13829;48.990;8.346;2023-04-25T09:38:43;100093.03;;;11.04;100.00
26112;BME280;13829;48.990;8.346;2023-04-25T09:41:11;100099.19;;;10.92;100.00
26112;BME280;13829;48.990;8.346;2023-04-25T09:43:39;100111.47;;;11.01;100.00
26112;BME280;13829;48.990;8.346;2023-04-25T09:46:09;100128.13;;;10.75;100.00
26112;BME280;13829;48.990;8.346;2023-04-25T09:48:37;100140.31;;;10.11;100.00
26112;BME280;13829;48.990;8.346;2023-04-25T09:51:07;100138.50;;;9.98;100.00
26112;BME280;13829;48.990;8.346;2023-04-25T09:53:36;100141.13;;;9.94;100.00
26112;BME280;13829;48.990;8.346;2023-04-25T09:56:07;100144.59;;;9.79;100.00
26112;BME280;13829;48.990;8.346;2023-04-25T09:58:36;100141.94;;;9.81;100.00
26112;BME280;13829;48.990;8.346;2023-04-25T10:01:06;100149.84;;;9.78;100.00
26112;BME280;13829;48.990;8.346;2023-04-25T10:03:36;100163.56;;;9.29;100.00
26112;BME280;13829;48.990;8.346;2023-04-25T10:06:11;100173.03;;;9.07;100.00
26112;BME280;13829;48.990;8.346;2023-04-25T10:08:39;100167.78;;;9.02;100.00
26112;BME280;13829;48.990;8.346;2023-04-25T10:11:08;100170.22;;;8.82;100.00
26112;BME280;13829;48.990;8.346;2023-04-25T10:13:36;100167.91;;;9.25;100.00
26112;BME280;13829;48.990;8.346;2023-04-25T10:16:04;100168.91;;;9.44;100.00
26112;BME280;13829;48.990;8.346;2023-04-25T10:18:32;100163.69;;;9.54;100.00
26112;BME280;13829;48.990;8.346;2023-04-25T10:21:03;100176.06;;;9.73;100.00
26112;BME280;13829;48.990;8.346;2023-04-25T10:23:32;100169.13;;;9.94;100.00
26112;BME280;13829;48.990;8.346;2023-04-25T10:26:00;100172.72;;;10.21;100.00
26112;BME280;13829;48.990;8.346;2023-04-25T10:28:29;100161.38;;;10.33;100.00
26112;BME280;13829;48.990;8.346;2023-04-25T10:31:01;100171.94;;;10.42;100.00
26112;BME280;13829;48.990;8.346;2023-04-25T10:33:36;100172.88;;;10.72;100.00
26112;BME280;13829;48.990;8.346;2023-04-25T10:36:11;100174.59;;;10.85;100.00
26112;BME280;13829;48.990;8.346;2023-04-25T10:38:39;100171.97;;;11.07;100.00
26112;BME280;13829;48.990;8.346;2023-04-25T10:41:09;100177.25;;;11.01;100.00
26112;BME280;13829;48.990;8.346;2023-04-25T10:43:40;100180.75;;;11.15;100.00
26112;BME280;13829;48.990;8.346;2023-04-25T10:46:23;100191.28;;;11.06;100.00
26112;BME280;13829;48.990;8.346;2023-04-25T10:48:53;100184.25;;;11.11;100.00
26112;BME280;13829;48.990;8.346;2023-04-25T10:51:23;100187.75;;;11.22;100.00
26112;BME280;13829;48.990;8.346;2023-04-25T10:53:59;100192.13;;;11.16;100.00
26112;BME280;13829;48.990;8.346;2023-04-25T10:56:28;100193.00;;;11.13;100.00
26112;BME280;13829;48.990;8.346;2023-04-25T10:59:08;100196.53;;;11.28;100.00
26112;BME280;13829;48.990;8.346;2023-04-25T11:01:38;100199.19;;;11.14;100.00
26112;BME280;13829;48.990;8.346;2023-04-25T11:04:06;100200.03;;;11.30;100.00
26112;BME280;13829;48.990;8.346;2023-04-25T11:07:00;100198.28;;;11.22;100.00
26112;BME280;13829;48.990;8.346;2023-04-25T11:09:29;100198.28;;;11.19;100.00
26112;BME280;13829;48.990;8.346;2023-04-25T11:11:58;100196.53;;;11.28;100.00
26112;BME280;13829;48.990;8.346;2023-04-25T11:14:27;100205.31;;;11.26;100.00
26112;BME280;13829;48.990;8.346;2023-04-25T11:16:54;100207.06;;;11.15;100.00
26112;BME280;13829;48.990;8.346;2023-04-25T11:19:22;100206.16;;;11.21;100.00
26112;BME280;13829;48.990;8.346;2023-04-25T11:21:50;100215.81;;;11.08;100.00
26112;BME280;13829;48.990;8.346;2023-04-25T11:24:17;100207.06;;;11.09;100.00
26112;BME280;13829;48.990;8.346;2023-04-25T11:26:47;100210.56;;;10.96;100.00
26112;BME280;13829;48.990;8.346;2023-04-25T11:29:14;100211.44;;;10.99;100.00
26112;BME280;13829;48.990;8.346;2023-04-25T11:31:44;100211.44;;;10.91;100.00
26112;BME280;13829;48.990;8.346;2023-04-25T11:34:16;100213.22;;;11.13;100.00
26112;BME280;13829;48.990;8.346;2023-04-25T11:36:45;100221.97;;;11.04;100.00
26112;BME280;13829;48.990;8.346;2023-04-25T11:39:12;100221.09;;;10.99;100.00
26112;BME280;13829;48.990;8.346;2023-04-25T11:41:41;100228.97;;;10.88;100.00
26112;BME280;13829;48.990;8.346;2023-04-25T11:44:08;100231.63;;;11.14;100.00
26112;BME280;13829;48.990;8.346;2023-04-25T11:46:35;100224.59;;;11.13;100.00
26112;BME280;13829;48.990;8.346;2023-04-25T11:49:04;100229.00;;;11.14;100.00
26112;BME280;13829;48.990;8.346;2023-04-25T11:51:38;100231.59;;;11.23;100.00
26112;BME280;13829;48.990;8.346;2023-04-25T11:54:06;100234.25;;;11.16;100.00
26112;BME280;13829;48.990;8.346;2023-04-25T11:56:33;100238.63;;;11.12;100.00
26112;BME280;13829;48.990;8.346;2023-04-25T11:59:02;100254.41;;;11.12;100.00
26112;BME280;13829;48.990;8.346;2023-04-25T12:01:32;100251.81;;;11.14;100.00
26112;BME280;13829;48.990;8.346;2023-04-25T12:04:11;100250.91;;;11.07;100.00
26112;BME280;13829;48.990;8.346;2023-04-25T12:06:39;100245.66;;;11.21;100.00
26112;BME280;13829;48.990;8.346;2023-04-25T12:09:09;100256.19;;;11.25;100.00
26112;BME280;13829;48.990;8.346;2023-04-25T12:11:42;100256.19;;;11.16;100.00
26112;BME280;13829;48.990;8.346;2023-04-25T12:14:09;100253.56;;;11.05;100.00
26112;BME280;13829;48.990;8.346;2023-04-25T12:16:47;100252.69;;;11.05;100.00
26112;BME280;13829;48.990;8.346;2023-04-25T12:19:19;100250.91;;;11.35;100.00
26112;BME280;13829;48.990;8.346;2023-04-25T12:21:47;100240.34;;;11.66;100.00
26112;BME280;13829;48.990;8.346;2023-04-25T12:24:18;100242.06;;;11.96;100.00
26112;BME280;13829;48.990;8.346;2023-04-25T12:26:50;100234.94;;;12.15;100.00
26112;BME280;13829;48.990;8.346;2023-04-25T12:29:20;100236.66;;;12.29;100.00
26112;BME280;13829;48.990;8.346;2023-04-25T12:31:49;100239.03;;;12.70;100.00
26112;BME280;13829;48.990;8.346;2023-04-25T12:34:22;100238.91;;;12.94;100.00
26112;BME280;13829;48.990;8.346;2023-04-25T12:36:50;100237.03;;;13.08;99.58
26112;BME280;13829;48.990;8.346;2023-04-25T12:39:19;100244.81;;;13.27;96.57
26112;BME280;13829;48.990;8.346;2023-04-25T12:41:48;100247.22;;;13.51;98.38
26112;BME280;13829;48.990;8.346;2023-04-25T12:44:15;100240.13;;;13.58;92.31
26112;BME280;13829;48.990;8.346;2023-04-25T12:46:42;100250.53;;;13.74;92.64
26112;BME280;13829;48.990;8.346;2023-04-25T12:49:09;100249.75;;;13.67;88.91
26112;BME280;13829;48.990;8.346;2023-04-25T12:51:38;100245.22;;;13.77;88.50
26112;BME280;13829;48.990;8.346;2023-04-25T12:54:08;100240.88;;;13.71;91.84
26112;BME280;13829;48.990;8.346;2023-04-25T12:56:36;100247.22;;;13.51;86.79